sensor_id;sensor_type;location;lat;lon;timestamp;pressure;altitude;pressure_sealevel;temperature;humidity
74973;BME280;63529;56.320;43.990;2022-12-04T00:01:56;103321.50;;;-9.74;62.96
74973;BME280;63529;56.320;43.990;2022-12-04T00:04:22;103313.75;;;-9.74;62.63
74973;BME280;63529;56.320;43.990;2022-12-04T00:06:48;103317.19;;;-9.74;62.31
74973;BME280;63529;56.320;43.990;2022-12-04T00:09:14;103325.72;;;-9.72;62.21
74973;BME280;63529;56.320;43.990;2022-12-04T00:11:40;103322.28;;;-9.71;61.96
74973;BME280;63529;56.320;43.990;2022-12-04T00:14:05;103321.38;;;-9.70;62.04
74973;BME280;63529;56.320;43.990;2022-12-04T00:16:31;103316.22;;;-9.70;61.88
74973;BME280;63529;56.320;43.990;2022-12-04T00:18:57;103317.91;;;-9.69;61.87
74973;BME280;63529;56.320;43.990;2022-12-04T00:21:24;103323.06;;;-9.69;61.90
74973;BME280;63529;56.320;43.990;2022-12-04T00:23:51;103317.91;;;-9.69;61.92
74973;BME280;63529;56.320;43.990;2022-12-04T00:26:21;103319.53;;;-9.66;61.97
74973;BME280;63529;56.320;43.990;2022-12-04T00:28:47;103314.38;;;-9.66;61.63
74973;BME280;63529;56.320;43.990;2022-12-04T00:31:17;103312.63;;;-9.66;61.21
74973;BME280;63529;56.320;43.990;2022-12-04T00:33:43;103311.78;;;-9.66;61.27
74973;BME280;63529;56.320;43.990;2022-12-04T00:36:12;103312.59;;;-9.64;61.09
74973;BME280;63529;56.320;43.990;2022-12-04T00:38:39;103317.72;;;-9.63;60.98
74973;BME280;63529;56.320;43.990;2022-12-04T00:41:09;103315.19;;;-9.64;61.00
74973;BME280;63529;56.320;43.990;2022-12-04T00:43:35;103313.44;;;-9.64;60.81
74973;BME280;63529;56.320;43.990;2022-12-04T00:46:02;103305.69;;;-9.64;60.51
74973;BME280;63529;56.320;43.990;2022-12-04T00:48:27;103300.59;;;-9.67;60.65
74973;BME280;63529;56.320;43.990;2022-12-04T00:50:53;103306.59;;;-9.65;61.00
74973;BME280;63529;56.320;43.990;2022-12-04T00:53:21;103310.03;;;-9.66;60.94
74973;BME280;63529;56.320;43.990;2022-12-04T00:55:47;103306.63;;;-9.66;61.01
74973;BME280;63529;56.320;43.990;2022-12-04T00:58:12;103302.34;;;-9.67;61.17
74973;BME280;63529;56.320;43.990;2022-12-04T01:00:41;103312.63;;;-9.66;61.18
74973;BME280;63529;56.320;43.990;2022-12-04T01:03:08;103317.78;;;-9.64;61.42
74973;BME280;63529;56.320;43.990;2022-12-04T01:05:44;103307.44;;;-9.66;61.16
74973;BME280;63529;56.320;43.990;2022-12-04T01:08:11;103315.19;;;-9.64;61.18
74973;BME280;63529;56.320;43.990;2022-12-04T01:10:39;103308.34;;;-9.67;60.89
74973;BME280;63529;56.320;43.990;2022-12-04T01:13:05;103314.34;;;-9.65;61.25
74973;BME280;63529;56.320;43.990;2022-12-04T01:15:31;103311.75;;;-9.65;61.00
74973;BME280;63529;56.320;43.990;2022-12-04T01:17:57;103312.59;;;-9.64;61.08
74973;BME280;63529;56.320;43.990;2022-12-04T01:20:23;103326.31;;;-9.62;61.13
74973;BME280;63529;56.320;43.990;2022-12-04T01:22:50;103316.88;;;-9.63;61.11
74973;BME280;63529;56.320;43.990;2022-12-04T01:25:15;103316.88;;;-9.63;61.16
74973;BME280;63529;56.320;43.990;2022-12-04T01:27:41;103310.88;;;-9.64;61.07
74973;BME280;63529;56.320;43.990;2022-12-04T01:30:07;103319.41;;;-9.62;61.09
74973;BME280;63529;56.320;43.990;2022-12-04T01:32:34;103318.56;;;-9.62;61.07
74973;BME280;63529;56.320;43.990;2022-12-04T01:34:59;103319.41;;;-9.62;60.86
74973;BME280;63529;56.320;43.990;2022-12-04T01:37:25;103315.97;;;-9.62;60.54
74973;BME280;63529;56.320;43.990;2022-12-04T01:39:51;103321.09;;;-9.61;60.42
74973;BME280;63529;56.320;43.990;2022-12-04T01:42:17;103321.16;;;-9.62;60.45
74973;BME280;63529;56.320;43.990;2022-12-04T01:47:47;103327.28;;;-9.65;60.50
74973;BME280;63529;56.320;43.990;2022-12-04T01:50:13;103326.41;;;-9.65;60.49
74973;BME280;63529;56.320;43.990;2022-12-04T01:52:40;103331.56;;;-9.65;60.37
74973;BME280;63529;56.320;43.990;2022-12-04T01:55:06;103328.13;;;-9.66;60.50
74973;BME280;63529;56.320;43.990;2022-12-04T01:57:33;103326.44;;;-9.67;60.46
74973;BME280;63529;56.320;43.990;2022-12-04T02:00:07;103331.66;;;-9.68;60.49
74973;BME280;63529;56.320;43.990;2022-12-04T02:02:36;103330.81;;;-9.69;60.54
74973;BME280;63529;56.320;43.990;2022-12-04T02:05:05;103329.13;;;-9.70;60.64
74973;BME280;63529;56.320;43.990;2022-12-04T02:07:32;103331.72;;;-9.70;60.47
74973;BME280;63529;56.320;43.990;2022-12-04T02:09:58;103332.56;;;-9.69;60.53
74973;BME280;63529;56.320;43.990;2022-12-04T02:25:57;103333.63;;;-9.76;60.74
74973;BME280;63529;56.320;43.990;2022-12-04T02:31:18;103326.91;;;-9.82;60.37
74973;BME280;63529;56.320;43.990;2022-12-04T02:36:31;103341.59;;;-9.84;60.76
74973;BME280;63529;56.320;43.990;2022-12-04T02:42:19;103337.34;;;-9.87;60.50
74973;BME280;63529;56.320;43.990;2022-12-04T02:44:51;103332.25;;;-9.88;60.69
74973;BME280;63529;56.320;43.990;2022-12-04T02:47:21;103334.88;;;-9.90;60.45
74973;BME280;63529;56.320;43.990;2022-12-04T02:49:52;103332.31;;;-9.91;60.91
74973;BME280;63529;56.320;43.990;2022-12-04T02:52:23;103330.63;;;-9.92;60.72
74973;BME280;63529;56.320;43.990;2022-12-04T02:54:56;103339.22;;;-9.92;60.63
74973;BME280;63529;56.320;43.990;2022-12-04T02:57:29;103328.94;;;-9.93;60.56
74973;BME280;63529;56.320;43.990;2022-12-04T02:59:57;103334.94;;;-9.93;60.66
74973;BME280;63529;56.320;43.990;2022-12-04T03:02:32;103334.94;;;-9.93;60.38
74973;BME280;63529;56.320;43.990;2022-12-04T03:05:06;103343.53;;;-9.92;60.48
74973;BME280;63529;56.320;43.990;2022-12-04T03:07:39;103339.22;;;-9.92;60.15
74973;BME280;63529;56.320;43.990;2022-12-04T03:10:12;103333.25;;;-9.94;59.97
74973;BME280;63529;56.320;43.990;2022-12-04T03:13:06;103335.00;;;-9.94;59.99
74973;BME280;63529;56.320;43.990;2022-12-04T03:15:39;103335.84;;;-9.94;60.04
74973;BME280;63529;56.320;43.990;2022-12-04T03:18:16;103341.00;;;-9.94;60.31
74973;BME280;63529;56.320;43.990;2022-12-04T03:20:45;103335.84;;;-9.94;60.15
74973;BME280;63529;56.320;43.990;2022-12-04T03:23:21;103337.56;;;-9.94;60.04
74973;BME280;63529;56.320;43.990;2022-12-04T03:25:59;103344.44;;;-9.93;60.14
74973;BME280;63529;56.320;43.990;2022-12-04T03:28:36;103338.47;;;-9.95;60.18
74973;BME280;63529;56.320;43.990;2022-12-04T03:31:08;103339.38;;;-9.98;60.30
74973;BME280;63529;56.320;43.990;2022-12-04T03:33:40;103348.00;;;-9.97;60.15
74973;BME280;63529;56.320;43.990;2022-12-04T03:36:32;103348.00;;;-9.97;60.26
74973;BME280;63529;56.320;43.990;2022-12-04T03:39:02;103350.59;;;-9.97;60.06
74973;BME280;63529;56.320;43.990;2022-12-04T03:41:50;103359.19;;;-9.97;60.34
74973;BME280;63529;56.320;43.990;2022-12-04T03:44:48;103348.88;;;-9.98;60.08
74973;BME280;63529;56.320;43.990;2022-12-04T03:47:20;103347.22;;;-10.01;60.26
74973;BME280;63529;56.320;43.990;2022-12-04T03:50:02;103348.91;;;-10.00;60.33
74973;BME280;63529;56.320;43.990;2022-12-04T03:52:36;103337.78;;;-10.02;60.24
74973;BME280;63529;56.320;43.990;2022-12-04T03:55:07;103342.91;;;-10.00;60.23
74973;BME280;63529;56.320;43.990;2022-12-04T03:57:42;103339.53;;;-10.02;60.31
74973;BME280;63529;56.320;43.990;2022-12-04T04:00:15;103341.22;;;-10.01;60.45
74973;BME280;63529;56.320;43.990;2022-12-04T04:02:50;103339.47;;;-10.01;60.23
74973;BME280;63529;56.320;43.990;2022-12-04T04:05:18;103341.22;;;-10.01;60.42
74973;BME280;63529;56.320;43.990;2022-12-04T04:07:50;103336.00;;;-10.00;60.28
74973;BME280;63529;56.320;43.990;2022-12-04T04:10:19;103342.00;;;-9.99;60.52
74973;BME280;63529;56.320;43.990;2022-12-04T04:12:58;103336.94;;;-10.02;60.41
74973;BME280;63529;56.320;43.990;2022-12-04T04:15:48;103339.47;;;-10.01;60.18
74973;BME280;63529;56.320;43.990;2022-12-04T04:18:34;103348.03;;;-9.99;60.30
74973;BME280;63529;56.320;43.990;2022-12-04T04:21:22;103339.47;;;-10.01;60.26
74973;BME280;63529;56.320;43.990;2022-12-04T04:24:11;103336.91;;;-10.01;59.95
74973;BME280;63529;56.320;43.990;2022-12-04T04:26:45;103334.25;;;-9.99;60.17
74973;BME280;63529;56.320;43.990;2022-12-04T04:29:12;103334.22;;;-9.98;59.78
74973;BME280;63529;56.320;43.990;2022-12-04T04:34:34;103342.00;;;-9.99;59.68
74973;BME280;63529;56.320;43.990;2022-12-04T04:42:43;103340.31;;;-10.00;59.55
74973;BME280;63529;56.320;43.990;2022-12-04T04:45:36;103346.28;;;-9.98;59.52
74973;BME280;63529;56.320;43.990;2022-12-04T04:48:25;103344.66;;;-10.01;59.57
74973;BME280;63529;56.320;43.990;2022-12-04T04:50:53;103342.13;;;-10.02;59.77
74973;BME280;63529;56.320;43.990;2022-12-04T04:53:25;103338.63;;;-10.01;59.60
74973;BME280;63529;56.320;43.990;2022-12-04T04:55:55;103342.16;;;-10.04;59.56
74973;BME280;63529;56.320;43.990;2022-12-04T04:58:21;103346.38;;;-10.01;59.62
74973;BME280;63529;56.320;43.990;2022-12-04T05:01:06;103347.22;;;-10.01;59.61
74973;BME280;63529;56.320;43.990;2022-12-04T05:03:34;103337.75;;;-10.00;59.39
74973;BME280;63529;56.320;43.990;2022-12-04T05:06:00;103349.75;;;-9.99;59.23
74973;BME280;63529;56.320;43.990;2022-12-04T05:08:26;103349.72;;;-9.98;59.16
74973;BME280;63529;56.320;43.990;2022-12-04T05:10:52;103347.13;;;-9.96;58.72
74973;BME280;63529;56.320;43.990;2022-12-04T05:13:19;103345.38;;;-9.96;58.99
74973;BME280;63529;56.320;43.990;2022-12-04T05:15:58;103343.63;;;-9.95;58.87
74973;BME280;63529;56.320;43.990;2022-12-04T05:18:24;103355.59;;;-9.93;58.77
74973;BME280;63529;56.320;43.990;2022-12-04T05:20:50;103351.28;;;-9.92;59.00
74973;BME280;63529;56.320;43.990;2022-12-04T05:23:16;103361.56;;;-9.89;58.78
74973;BME280;63529;56.320;43.990;2022-12-04T05:25:42;103363.25;;;-9.88;58.65
74973;BME280;63529;56.320;43.990;2022-12-04T05:28:08;103350.31;;;-9.88;58.51
74973;BME280;63529;56.320;43.990;2022-12-04T05:30:34;103353.66;;;-9.85;58.04
74973;BME280;63529;56.320;43.990;2022-12-04T05:33:00;103349.38;;;-9.84;58.05
74973;BME280;63529;56.320;43.990;2022-12-04T05:35:26;103343.25;;;-9.81;58.07
74973;BME280;63529;56.320;43.990;2022-12-04T05:37:52;103352.63;;;-9.79;58.13
74973;BME280;63529;56.320;43.990;2022-12-04T05:40:18;103353.47;;;-9.78;57.90
74973;BME280;63529;56.320;43.990;2022-12-04T05:42:44;103351.72;;;-9.76;57.77
74973;BME280;63529;56.320;43.990;2022-12-04T05:45:10;103349.88;;;-9.73;57.33
74973;BME280;63529;56.320;43.990;2022-12-04T05:47:42;103349.09;;;-9.75;57.58
74973;BME280;63529;56.320;43.990;2022-12-04T05:50:10;103349.00;;;-9.72;57.36
74973;BME280;63529;56.320;43.990;2022-12-04T05:52:37;103353.19;;;-9.68;57.54
74973;BME280;63529;56.320;43.990;2022-12-04T05:55:03;103362.56;;;-9.64;57.23
74973;BME280;63529;56.320;43.990;2022-12-04T05:57:29;103357.38;;;-9.64;57.39
74973;BME280;63529;56.320;43.990;2022-12-04T05:59:55;103356.38;;;-9.60;57.01
74973;BME280;63529;56.320;43.990;2022-12-04T06:02:21;103356.31;;;-9.57;57.16
74973;BME280;63529;56.320;43.990;2022-12-04T06:04:47;103358.75;;;-9.52;57.09
74973;BME280;63529;56.320;43.990;2022-12-04T06:07:13;103350.91;;;-9.49;57.18
74973;BME280;63529;56.320;43.990;2022-12-04T06:09:39;103353.31;;;-9.43;57.31
74973;BME280;63529;56.320;43.990;2022-12-04T06:12:05;103350.59;;;-9.38;57.18
74973;BME280;63529;56.320;43.990;2022-12-04T06:14:30;103350.38;;;-9.31;57.04
74973;BME280;63529;56.320;43.990;2022-12-04T06:16:56;103357.09;;;-9.25;57.04
74973;BME280;63529;56.320;43.990;2022-12-04T06:19:22;103350.75;;;-9.15;56.98
74973;BME280;63529;56.320;43.990;2022-12-04T06:21:51;103347.88;;;-9.06;56.65
74973;BME280;63529;56.320;43.990;2022-12-04T06:24:22;103357.88;;;-8.95;56.58
74973;BME280;63529;56.320;43.990;2022-12-04T06:26:49;103353.97;;;-8.80;56.73
74973;BME280;63529;56.320;43.990;2022-12-04T06:29:15;103356.97;;;-8.67;56.29
74973;BME280;63529;56.320;43.990;2022-12-04T06:31:42;103354.00;;;-8.55;56.31
74973;BME280;63529;56.320;43.990;2022-12-04T06:34:09;103353.31;;;-8.35;56.20
74973;BME280;63529;56.320;43.990;2022-12-04T06:36:35;103344.69;;;-8.11;56.12
74973;BME280;63529;56.320;43.990;2022-12-04T06:39:01;103349.53;;;-7.09;55.64
74973;BME280;63529;56.320;43.990;2022-12-04T06:41:28;103351.06;;;-6.21;53.29
74973;BME280;63529;56.320;43.990;2022-12-04T06:43:55;103349.81;;;-6.33;52.73
74973;BME280;63529;56.320;43.990;2022-12-04T06:46:27;103353.59;;;-6.40;52.90
74973;BME280;63529;56.320;43.990;2022-12-04T06:48:54;103341.66;;;-4.57;52.02
74973;BME280;63529;56.320;43.990;2022-12-04T06:51:23;103335.25;;;-2.59;48.87
74973;BME280;63529;56.320;43.990;2022-12-04T06:53:50;103333.84;;;-1.63;46.53
74973;BME280;63529;56.320;43.990;2022-12-04T06:56:19;103335.38;;;-0.52;44.76
74973;BME280;63529;56.320;43.990;2022-12-04T06:58:49;103322.22;;;-0.91;43.22
74973;BME280;63529;56.320;43.990;2022-12-04T07:01:19;103340.13;;;-2.08;44.06
74973;BME280;63529;56.320;43.990;2022-12-04T07:03:45;103345.09;;;-2.78;45.50
74973;BME280;63529;56.320;43.990;2022-12-04T07:08:50;103341.22;;;-3.97;47.81
74973;BME280;63529;56.320;43.990;2022-12-04T07:11:17;103334.38;;;-4.33;48.04
74973;BME280;63529;56.320;43.990;2022-12-04T07:13:43;103340.06;;;-4.59;47.89
74973;BME280;63529;56.320;43.990;2022-12-04T07:16:12;103340.13;;;-4.78;48.24
74973;BME280;63529;56.320;43.990;2022-12-04T07:18:38;103349.19;;;-4.68;49.22
74973;BME280;63529;56.320;43.990;2022-12-04T07:21:12;103341.28;;;-4.49;49.19
74973;BME280;63529;56.320;43.990;2022-12-04T07:23:39;103345.50;;;-4.29;49.36
74973;BME280;63529;56.320;43.990;2022-12-04T07:26:11;103343.66;;;-4.45;49.19
74973;BME280;63529;56.320;43.990;2022-12-04T07:28:37;103353.59;;;-4.70;49.35
74973;BME280;63529;56.320;43.990;2022-12-04T07:31:05;103362.25;;;-4.87;50.28
74973;BME280;63529;56.320;43.990;2022-12-04T07:33:32;103354.00;;;-4.26;50.52
74973;BME280;63529;56.320;43.990;2022-12-04T07:35:59;103358.66;;;-3.17;49.82
74973;BME280;63529;56.320;43.990;2022-12-04T07:38:26;103362.13;;;-1.00;47.73
74973;BME280;63529;56.320;43.990;2022-12-04T07:40:55;103350.03;;;1.13;44.78
74973;BME280;63529;56.320;43.990;2022-12-04T07:43:21;103350.06;;;2.82;42.01
74973;BME280;63529;56.320;43.990;2022-12-04T07:45:47;103345.53;;;4.09;40.00
74973;BME280;63529;56.320;43.990;2022-12-04T07:48:13;103343.41;;;5.13;38.39
74973;BME280;63529;56.320;43.990;2022-12-04T07:50:38;103351.69;;;5.95;37.01
74973;BME280;63529;56.320;43.990;2022-12-04T07:53:04;103350.69;;;6.61;36.30
74973;BME280;63529;56.320;43.990;2022-12-04T07:55:30;103350.19;;;7.11;35.95
74973;BME280;63529;56.320;43.990;2022-12-04T07:57:56;103346.88;;;7.53;35.46
74973;BME280;63529;56.320;43.990;2022-12-04T08:00:22;103349.34;;;7.98;35.33
74973;BME280;63529;56.320;43.990;2022-12-04T08:02:48;103348.88;;;8.37;34.92
74973;BME280;63529;56.320;43.990;2022-12-04T08:05:15;103357.13;;;8.68;34.84
74973;BME280;63529;56.320;43.990;2022-12-04T08:07:41;103350.19;;;8.91;34.49
74973;BME280;63529;56.320;43.990;2022-12-04T08:10:08;103359.22;;;9.15;34.29
74973;BME280;63529;56.320;43.990;2022-12-04T08:12:34;103356.22;;;9.34;33.95
74973;BME280;63529;56.320;43.990;2022-12-04T08:15:00;103363.06;;;9.53;33.81
74973;BME280;63529;56.320;43.990;2022-12-04T08:17:26;103360.16;;;9.71;33.78
74973;BME280;63529;56.320;43.990;2022-12-04T08:19:52;103368.00;;;9.89;33.72
74973;BME280;63529;56.320;43.990;2022-12-04T08:22:18;103369.81;;;10.04;33.72
74973;BME280;63529;56.320;43.990;2022-12-04T08:24:44;103366.41;;;10.19;33.45
74973;BME280;63529;56.320;43.990;2022-12-04T08:27:10;103366.91;;;10.30;33.19
74973;BME280;63529;56.320;43.990;2022-12-04T08:29:36;103362.53;;;10.38;32.98
74973;BME280;63529;56.320;43.990;2022-12-04T08:32:02;103360.28;;;10.49;32.94
74973;BME280;63529;56.320;43.990;2022-12-04T08:34:28;103354.56;;;10.60;32.72
74973;BME280;63529;56.320;43.990;2022-12-04T08:36:54;103360.53;;;10.71;32.64
74973;BME280;63529;56.320;43.990;2022-12-04T08:39:20;103352.16;;;10.74;32.34
74973;BME280;63529;56.320;43.990;2022-12-04T08:41:46;103352.16;;;10.74;32.32
74973;BME280;63529;56.320;43.990;2022-12-04T08:44:12;103353.16;;;10.73;32.22
74973;BME280;63529;56.320;43.990;2022-12-04T08:46:38;103352.19;;;10.66;31.88
74973;BME280;63529;56.320;43.990;2022-12-04T08:49:04;103345.91;;;10.58;31.75
74973;BME280;63529;56.320;43.990;2022-12-04T08:51:31;103344.44;;;10.48;31.72
74973;BME280;63529;56.320;43.990;2022-12-04T08:54:05;103346.38;;;10.23;31.69
74973;BME280;63529;56.320;43.990;2022-12-04T08:56:32;103350.22;;;9.24;31.89
74973;BME280;63529;56.320;43.990;2022-12-04T08:58:59;103346.09;;;7.60;32.71
74973;BME280;63529;56.320;43.990;2022-12-04T09:01:26;103357.50;;;5.99;34.48
74973;BME280;63529;56.320;43.990;2022-12-04T09:03:52;103354.88;;;4.54;36.00
74973;BME280;63529;56.320;43.990;2022-12-04T09:06:18;103361.50;;;3.36;37.42
74973;BME280;63529;56.320;43.990;2022-12-04T09:08:44;103367.88;;;2.35;38.49
74973;BME280;63529;56.320;43.990;2022-12-04T09:11:15;103360.34;;;1.51;39.20
74973;BME280;63529;56.320;43.990;2022-12-04T09:13:42;103355.47;;;0.74;39.93
74973;BME280;63529;56.320;43.990;2022-12-04T09:16:15;103350.97;;;0.14;40.86
74973;BME280;63529;56.320;43.990;2022-12-04T09:18:41;103347.81;;;-0.42;41.37
74973;BME280;63529;56.320;43.990;2022-12-04T09:21:10;103355.47;;;-0.91;42.30
74973;BME280;63529;56.320;43.990;2022-12-04T09:23:37;103346.88;;;-1.34;43.14
74973;BME280;63529;56.320;43.990;2022-12-04T09:26:05;103340.75;;;-1.76;43.27
74973;BME280;63529;56.320;43.990;2022-12-04T09:28:31;103344.78;;;-2.13;43.54
74973;BME280;63529;56.320;43.990;2022-12-04T09:30:59;103349.56;;;-2.50;43.47
74973;BME280;63529;56.320;43.990;2022-12-04T09:33:25;103351.53;;;-2.84;44.13
74973;BME280;63529;56.320;43.990;2022-12-04T09:35:51;103347.06;;;-3.13;44.56
74973;BME280;63529;56.320;43.990;2022-12-04T09:38:17;103352.00;;;-3.39;45.31
74973;BME280;63529;56.320;43.990;2022-12-04T09:41:04;103355.09;;;-3.64;45.91
74973;BME280;63529;56.320;43.990;2022-12-04T09:43:39;103349.41;;;-3.88;45.96
74973;BME280;63529;56.320;43.990;2022-12-04T09:46:13;103348.00;;;-4.11;45.88
74973;BME280;63529;56.320;43.990;2022-12-04T09:48:43;103349.09;;;-4.32;46.29
74973;BME280;63529;56.320;43.990;2022-12-04T09:51:10;103344.75;;;-4.49;46.54
74973;BME280;63529;56.320;43.990;2022-12-04T09:56:18;103338.81;;;-4.87;47.15
74973;BME280;63529;56.320;43.990;2022-12-04T09:58:56;103348.13;;;-5.00;47.41
74973;BME280;63529;56.320;43.990;2022-12-04T10:01:29;103355.78;;;-5.14;47.73
74973;BME280;63529;56.320;43.990;2022-12-04T10:03:58;103351.25;;;-5.30;47.75
74973;BME280;63529;56.320;43.990;2022-12-04T10:06:40;103350.88;;;-5.39;48.26
74973;BME280;63529;56.320;43.990;2022-12-04T10:09:35;103359.16;;;-5.50;48.40
74973;BME280;63529;56.320;43.990;2022-12-04T10:21:15;103355.47;;;-5.84;49.14
74973;BME280;63529;56.320;43.990;2022-12-04T10:26:43;103344.72;;;-5.95;49.87
74973;BME280;63529;56.320;43.990;2022-12-04T10:29:24;103347.47;;;-5.98;50.06
74973;BME280;63529;56.320;43.990;2022-12-04T10:31:55;103351.09;;;-6.02;50.21
74973;BME280;63529;56.320;43.990;2022-12-04T10:34:26;103346.06;;;-6.05;50.72
74973;BME280;63529;56.320;43.990;2022-12-04T10:36:56;103341.91;;;-6.09;50.84
74973;BME280;63529;56.320;43.990;2022-12-04T10:39:25;103346.31;;;-6.11;51.00
74973;BME280;63529;56.320;43.990;2022-12-04T10:44:30;103339.72;;;-6.18;51.52
74973;BME280;63529;56.320;43.990;2022-12-04T10:46:59;103329.34;;;-6.20;51.72
74973;BME280;63529;56.320;43.990;2022-12-04T10:49:28;103327.88;;;-6.25;52.18
74973;BME280;63529;56.320;43.990;2022-12-04T10:51:54;103334.88;;;-6.28;52.26
74973;BME280;63529;56.320;43.990;2022-12-04T10:54:32;103333.34;;;-6.32;52.48
74973;BME280;63529;56.320;43.990;2022-12-04T10:57:04;103335.22;;;-6.35;52.54
74973;BME280;63529;56.320;43.990;2022-12-04T10:59:31;103322.47;;;-6.41;52.85
74973;BME280;63529;56.320;43.990;2022-12-04T11:04:56;103323.81;;;-6.51;52.86
74973;BME280;63529;56.320;43.990;2022-12-04T11:07:25;103324.91;;;-6.57;52.73
74973;BME280;63529;56.320;43.990;2022-12-04T11:10:04;103324.25;;;-6.62;53.02
74973;BME280;63529;56.320;43.990;2022-12-04T11:12:31;103318.38;;;-6.67;53.04
74973;BME280;63529;56.320;43.990;2022-12-04T11:17:29;103317.03;;;-6.76;53.21
74973;BME280;63529;56.320;43.990;2022-12-04T11:20:05;103312.06;;;-6.82;53.40
74973;BME280;63529;56.320;43.990;2022-12-04T11:22:34;103305.38;;;-6.88;53.50
74973;BME280;63529;56.320;43.990;2022-12-04T11:25:01;103300.38;;;-6.92;53.46
74973;BME280;63529;56.320;43.990;2022-12-04T11:27:31;103294.56;;;-6.99;53.50
74973;BME280;63529;56.320;43.990;2022-12-04T11:30:07;103299.13;;;-7.04;53.64
74973;BME280;63529;56.320;43.990;2022-12-04T11:32:34;103292.44;;;-7.09;53.90
74973;BME280;63529;56.320;43.990;2022-12-04T11:35:15;103295.28;;;-7.16;53.95
74973;BME280;63529;56.320;43.990;2022-12-04T11:40:22;103296.59;;;-7.27;54.04
74973;BME280;63529;56.320;43.990;2022-12-04T11:43:18;103299.31;;;-7.30;54.17
74973;BME280;63529;56.320;43.990;2022-12-04T11:45:57;103297.75;;;-7.34;54.34
74973;BME280;63529;56.320;43.990;2022-12-04T11:48:24;103299.66;;;-7.40;54.50
74973;BME280;63529;56.320;43.990;2022-12-04T11:56:22;103294.13;;;-7.52;54.82
74973;BME280;63529;56.320;43.990;2022-12-04T12:01:23;103300.44;;;-7.59;55.17
74973;BME280;63529;56.320;43.990;2022-12-04T12:06:38;103299.06;;;-7.68;55.50
74973;BME280;63529;56.320;43.990;2022-12-04T12:11:55;103298.44;;;-7.75;55.64
74973;BME280;63529;56.320;43.990;2022-12-04T12:14:36;103302.09;;;-7.80;55.91
74973;BME280;63529;56.320;43.990;2022-12-04T12:20:40;103300.66;;;-7.89;56.31
74973;BME280;63529;56.320;43.990;2022-12-04T12:28:22;103299.44;;;-8.02;56.87
74973;BME280;63529;56.320;43.990;2022-12-04T12:34:04;103299.78;;;-8.11;56.95
74973;BME280;63529;56.320;43.990;2022-12-04T12:36:35;103311.13;;;-8.15;57.43
74973;BME280;63529;56.320;43.990;2022-12-04T12:39:14;103306.19;;;-8.22;57.17
74973;BME280;63529;56.320;43.990;2022-12-04T12:41:49;103308.94;;;-8.26;57.64
74973;BME280;63529;56.320;43.990;2022-12-04T12:44:28;103304.75;;;-8.30;57.56
74973;BME280;63529;56.320;43.990;2022-12-04T12:47:12;103298.94;;;-8.35;57.86
74973;BME280;63529;56.320;43.990;2022-12-04T12:49:54;103288.75;;;-8.40;58.07
74973;BME280;63529;56.320;43.990;2022-12-04T12:52:45;103297.50;;;-8.44;58.32
74973;BME280;63529;56.320;43.990;2022-12-04T12:55:19;103297.66;;;-8.49;58.42
74973;BME280;63529;56.320;43.990;2022-12-04T12:57:57;103302.13;;;-8.52;58.61
74973;BME280;63529;56.320;43.990;2022-12-04T13:00:25;103297.00;;;-8.54;58.63
74973;BME280;63529;56.320;43.990;2022-12-04T13:03:01;103287.63;;;-8.58;58.58
74973;BME280;63529;56.320;43.990;2022-12-04T13:05:34;103296.25;;;-8.57;59.10
74973;BME280;63529;56.320;43.990;2022-12-04T13:08:36;103284.41;;;-8.64;59.26
74973;BME280;63529;56.320;43.990;2022-12-04T13:11:11;103290.44;;;-8.64;59.37
74973;BME280;63529;56.320;43.990;2022-12-04T13:13:50;103287.09;;;-8.67;59.30
74973;BME280;63529;56.320;43.990;2022-12-04T13:16:24;103289.72;;;-8.69;59.64
74973;BME280;63529;56.320;43.990;2022-12-04T13:18:59;103286.28;;;-8.69;59.50
74973;BME280;63529;56.320;43.990;2022-12-04T13:26:56;103277.00;;;-8.75;59.79
74973;BME280;63529;56.320;43.990;2022-12-04T13:29:56;103284.81;;;-8.77;59.82
74973;BME280;63529;56.320;43.990;2022-12-04T13:38:19;103274.66;;;-8.83;60.24
74973;BME280;63529;56.320;43.990;2022-12-04T13:40:59;103273.81;;;-8.83;60.23
74973;BME280;63529;56.320;43.990;2022-12-04T13:46:07;103277.31;;;-8.84;60.34
74973;BME280;63529;56.320;43.990;2022-12-04T13:48:45;103267.88;;;-8.87;60.28
74973;BME280;63529;56.320;43.990;2022-12-04T13:51:23;103267.03;;;-8.87;60.48
74973;BME280;63529;56.320;43.990;2022-12-04T13:54:02;103262.84;;;-8.90;60.60
74973;BME280;63529;56.320;43.990;2022-12-04T13:56:29;103268.78;;;-8.88;60.49
74973;BME280;63529;56.320;43.990;2022-12-04T13:59:04;103259.47;;;-8.92;60.54
74973;BME280;63529;56.320;43.990;2022-12-04T14:01:44;103261.13;;;-8.91;60.55
74973;BME280;63529;56.320;43.990;2022-12-04T14:04:30;103256.81;;;-8.90;60.45
74973;BME280;63529;56.320;43.990;2022-12-04T14:06:59;103269.75;;;-8.90;60.42
74973;BME280;63529;56.320;43.990;2022-12-04T14:09:28;103259.47;;;-8.92;60.15
74973;BME280;63529;56.320;43.990;2022-12-04T14:12:00;103256.06;;;-8.94;60.38
74973;BME280;63529;56.320;43.990;2022-12-04T14:14:29;103265.47;;;-8.91;60.23
74973;BME280;63529;56.320;43.990;2022-12-04T14:16:57;103254.31;;;-8.93;60.43
74973;BME280;63529;56.320;43.990;2022-12-04T14:19:30;103260.34;;;-8.93;60.04
74973;BME280;63529;56.320;43.990;2022-12-04T14:21:58;103256.06;;;-8.94;60.00
74973;BME280;63529;56.320;43.990;2022-12-04T14:24:35;103255.22;;;-8.94;59.68
74973;BME280;63529;56.320;43.990;2022-12-04T14:27:41;103256.06;;;-8.94;59.63
74973;BME280;63529;56.320;43.990;2022-12-04T14:30:18;103254.38;;;-8.95;59.75
74973;BME280;63529;56.320;43.990;2022-12-04T14:32:46;103253.53;;;-8.95;59.54
74973;BME280;63529;56.320;43.990;2022-12-04T14:35:19;103247.63;;;-8.99;59.14
74973;BME280;63529;56.320;43.990;2022-12-04T14:37:52;103251.94;;;-8.99;59.37
74973;BME280;63529;56.320;43.990;2022-12-04T14:40:24;103256.22;;;-8.98;59.31